Aviation Digital Data Service (ADDS)

Output produced by METARs form (0209 UTC 26 April 2017)
found at http://www.aviationweather.gov/adds/metars/
 
UAAA 260200Z VRB01MPS 9999 NSC 16/09 Q1015 R88/65D NOSIG
TAF UAAA 252300Z 2600/2624 31005MPS 9999 SCT050 BKN100 TX26/2609Z TN09/2601Z 
     TEMPO 2606/2614 03005MPS 
     TEMPO 2614/2622 16005MPS 5000 FU
       
UAAH 260030Z 06006MPS CAVOK 08/03 Q1019 R05/0///60 NOSIG RMK QFE727/0969
TAF UAAH 252302Z 2600/2609 08008MPS CAVOK 
     TEMPO 2606/2609 12006MPS
       
UACC 260200Z 17005MPS CAVOK 14/04 Q1016 R22/0///70 NOSIG RMK QFE731/0975
TAF UACC 252300Z 2600/2624 18006MPS CAVOK TX26/2609Z TN10/2623Z
       
UACK 260200Z 18003MPS CAVOK 13/07 Q1014 NOSIG RMK QFE737/0983
UACP 260200Z 13003MPS 9999 -RA OVC033 12/10 Q1014 NOSIG RMK QFE748/0997
UADD 260200Z 18003MPS 130V200 9999 NSC 17/10 Q1015 R13/0///65 NOSIG RMK QFE704/0939
TAF UADD 252300Z 2600/2609 22005G10MPS 9999 NSC
       
UAII 260200Z 13003MPS 8000 NSC 17/10 Q1014 R10/0///70 NOSIG RMK QFE725/0967
TAF UAII 252300Z 2600/2624 26005MPS 6000 BKN100 TX30/2609Z TN12/2601Z 
     TEMPO 2600/2604 13006MPS 
     TEMPO 2604/2613 22007MPS
       
TAF UAKD 252300Z 2600/2609 12005MPS 9999 OVC100
       
UAKK 260200Z 18009MPS CAVOK 15/M00 Q1019 R23/0///70 NOSIG RMK QFE717/0956
TAF UAKK 252300Z 2600/2624 VRB02MPS 9999 SCT030 SCT100 TX25/2609Z TN05/2601Z 
     TEMPO 2600/2615 17007MPS
       
UAOO 260200Z 32002MPS 290V360 CAVOK 15/10 Q1014 R23/CLRD70 NOSIG RMK QFE749/0999
TAF AMD UAOO 252326Z 2600/2609 33005MPS CAVOK
       
UARR 260200Z 29005MPS CAVOK 03/02 Q1022 R22/210260 NOSIG RMK QFE763/1017
TAF UARR 252301Z 2600/2609 30005MPS 9999 BKN010 BKN020CB 
     TEMPO 2600/2605 3000 -SHRA BR 
     BECMG 2605/2607 31007G12MPS
       
UASK 260200Z VRB01MPS 9999 FEW230 09/M01 Q1022 R12/190060 NOSIG RMK QFE741/0988
TAF UASK 252301Z 2600/2609 08005G10MPS 9999 SCT030 SCT100 
     TEMPO 2600/2603 4000 BR
       
UASP 260200Z 14008MPS CAVOK 11/03 Q1020 R21/0///70 NOSIG RMK QFE754/1005
TAF UASP 252300Z 2600/2609 13005MPS 9999 SCT020 
     TEMPO 2600/2603 14010MPS 
     TEMPO 2603/2609 16012MPS
       
UASS 260200Z 16002MPS 110V210 CAVOK 09/03 Q1022 NOSIG RMK QFE748/0997
UATE 260200Z 32003MPS CAVOK 06/06 Q1031 R30/0///70 NOSIG RMK QFE772/1029
TAF UATE 252300Z 2600/2624 30006G12MPS 9999 SCT015 TX14/2609Z TN06/2602Z
       
UATG 260200Z 26003MPS CAVOK 02/01 Q1028 R32/CLRD70 NOSIG RMK QFE773/1031
TAF UATG 252301Z 2600/2624 27008MPS 6000 SCT010 BKN030CB TX16/2612Z TN04/2602Z 
     BECMG 2604/2606 31008G13MPS 9999
       
UATT 260200Z 00000MPS 9999 FEW030CB 06/05 Q1020 R31/29//50 NOSIG RMK QFE745/0993
TAF AMD UATT 260120Z 2602/2624 27005MPS 5000 -SHRA BR BKN015CB TX12/2610Z TNM02/2624Z 
     TEMPO 2604/2615 27010MPS BKN010CB 
     TEMPO 2615/2624 3000 BR SCT005 BKN010
       
UAUU 260200Z 02005MPS CAVOK 05/03 Q1014 R15/CLRD60 NOSIG RMK QFE744/0992
TAF UAUU 252300Z 2600/2609 33005MPS 3000 BR SCT006 BKN010CB OVC100 
     TEMPO 2600/2606 0400 FG VV002